Terminal Aerodrome Forecast
Issued by NWS Sterling, VA

Current Version | Previous Version | Text Only | Print | Product List | Glossary Off
Versions: 1 2 3 4 5 6 7 8 9 10 11 12 13 14 15 16 17 18 19 20 21 22

000
FTUS41 KLWX 220855 AAA
TAFDCA
TAF AMD
KDCA 220855Z 2209/2306 22004KT P6SM FEW100
     FM221400 20013G28KT P6SM BKN130
     FM221800 25014G30KT P6SM -SHRA BKN060
     FM222200 28013G28KT P6SM BKN060
     FM230000 29012KT P6SM SCT090=

USA.gov is the U.S. government's official web portal to all federal, state and local government web resources and services.